sensor_id;sensor_type;location;lat;lon;timestamp;temperature;humidity
15099;DHT22;33900;53.640;9.942;2022-11-20T00:03:43;6.30;86.60
15099;DHT22;33900;53.640;9.942;2022-11-20T00:06:09;6.30;86.60
15099;DHT22;33900;53.640;9.942;2022-11-20T00:08:35;6.30;86.70
15099;DHT22;33900;53.640;9.942;2022-11-20T00:11:11;6.20;86.70
15099;DHT22;33900;53.640;9.942;2022-11-20T00:13:38;6.20;86.70
15099;DHT22;33900;53.640;9.942;2022-11-20T00:16:05;6.20;86.70
15099;DHT22;33900;53.640;9.942;2022-11-20T00:18:32;6.10;86.80
15099;DHT22;33900;53.640;9.942;2022-11-20T00:21:01;6.10;86.80
15099;DHT22;33900;53.640;9.942;2022-11-20T00:23:27;6.10;87.00
15099;DHT22;33900;53.640;9.942;2022-11-20T00:25:53;6.10;87.10
15099;DHT22;33900;53.640;9.942;2022-11-20T00:28:18;6.10;87.10
15099;DHT22;33900;53.640;9.942;2022-11-20T00:30:44;6.10;87.20
15099;DHT22;33900;53.640;9.942;2022-11-20T00:33:10;6.10;87.30
15099;DHT22;33900;53.640;9.942;2022-11-20T00:35:35;6.10;87.40
15099;DHT22;33900;53.640;9.942;2022-11-20T00:38:01;6.00;87.30
15099;DHT22;33900;53.640;9.942;2022-11-20T00:40:26;6.00;87.30
15099;DHT22;33900;53.640;9.942;2022-11-20T00:45:43;6.00;87.40
15099;DHT22;33900;53.640;9.942;2022-11-20T00:48:09;6.00;87.50
15099;DHT22;33900;53.640;9.942;2022-11-20T00:50:35;5.90;87.50
15099;DHT22;33900;53.640;9.942;2022-11-20T00:53:00;5.90;87.50
15099;DHT22;33900;53.640;9.942;2022-11-20T00:55:26;5.90;87.70
15099;DHT22;33900;53.640;9.942;2022-11-20T00:57:51;5.90;87.70
15099;DHT22;33900;53.640;9.942;2022-11-20T01:00:20;5.90;87.80
15099;DHT22;33900;53.640;9.942;2022-11-20T01:02:45;5.90;87.90
15099;DHT22;33900;53.640;9.942;2022-11-20T01:05:11;5.90;87.90
15099;DHT22;33900;53.640;9.942;2022-11-20T01:07:37;5.90;88.00
15099;DHT22;33900;53.640;9.942;2022-11-20T01:10:03;5.90;88.10
15099;DHT22;33900;53.640;9.942;2022-11-20T01:12:28;5.90;88.20
15099;DHT22;33900;53.640;9.942;2022-11-20T01:14:54;5.80;88.20
15099;DHT22;33900;53.640;9.942;2022-11-20T01:17:22;5.90;88.40
15099;DHT22;33900;53.640;9.942;2022-11-20T01:19:51;5.80;88.50
15099;DHT22;33900;53.640;9.942;2022-11-20T01:22:17;5.80;88.60
15099;DHT22;33900;53.640;9.942;2022-11-20T01:24:42;5.80;88.70
15099;DHT22;33900;53.640;9.942;2022-11-20T01:27:08;5.80;88.80
15099;DHT22;33900;53.640;9.942;2022-11-20T01:29:37;5.80;88.90
15099;DHT22;33900;53.640;9.942;2022-11-20T01:32:05;5.80;89.10
15099;DHT22;33900;53.640;9.942;2022-11-20T01:34:31;5.80;89.20
15099;DHT22;33900;53.640;9.942;2022-11-20T01:36:57;5.70;89.20
15099;DHT22;33900;53.640;9.942;2022-11-20T01:39:23;5.70;89.30
15099;DHT22;33900;53.640;9.942;2022-11-20T01:41:50;5.70;89.40
15099;DHT22;33900;53.640;9.942;2022-11-20T01:47:09;5.70;89.60
15099;DHT22;33900;53.640;9.942;2022-11-20T01:50:11;5.70;89.60
15099;DHT22;33900;53.640;9.942;2022-11-20T01:55:28;5.70;89.80
15099;DHT22;33900;53.640;9.942;2022-11-20T01:57:55;5.70;89.80
15099;DHT22;33900;53.640;9.942;2022-11-20T02:00:22;5.70;90.30
15099;DHT22;33900;53.640;9.942;2022-11-20T02:02:48;5.70;90.00
15099;DHT22;33900;53.640;9.942;2022-11-20T02:05:18;5.70;90.00
15099;DHT22;33900;53.640;9.942;2022-11-20T02:07:45;5.70;90.00
15099;DHT22;33900;53.640;9.942;2022-11-20T02:10:11;5.70;90.00
15099;DHT22;33900;53.640;9.942;2022-11-20T02:12:37;5.70;90.00
15099;DHT22;33900;53.640;9.942;2022-11-20T02:15:22;5.70;90.10
15099;DHT22;33900;53.640;9.942;2022-11-20T02:17:47;5.70;90.10
15099;DHT22;33900;53.640;9.942;2022-11-20T02:20:13;5.70;90.10
15099;DHT22;33900;53.640;9.942;2022-11-20T02:22:42;5.60;90.10
15099;DHT22;33900;53.640;9.942;2022-11-20T02:25:12;5.60;90.10
15099;DHT22;33900;53.640;9.942;2022-11-20T02:27:38;5.60;90.10
15099;DHT22;33900;53.640;9.942;2022-11-20T02:30:05;5.60;90.10
15099;DHT22;33900;53.640;9.942;2022-11-20T02:32:33;5.60;90.10
15099;DHT22;33900;53.640;9.942;2022-11-20T02:37:47;5.60;90.10
15099;DHT22;33900;53.640;9.942;2022-11-20T02:40:13;5.60;90.50
15099;DHT22;33900;53.640;9.942;2022-11-20T02:42:39;5.70;90.20
15099;DHT22;33900;53.640;9.942;2022-11-20T02:45:05;5.60;90.20
15099;DHT22;33900;53.640;9.942;2022-11-20T02:47:31;5.70;90.30
15099;DHT22;33900;53.640;9.942;2022-11-20T02:49:57;5.70;90.30
15099;DHT22;33900;53.640;9.942;2022-11-20T02:52:23;5.70;90.30
15099;DHT22;33900;53.640;9.942;2022-11-20T02:54:48;5.70;90.30
15099;DHT22;33900;53.640;9.942;2022-11-20T02:57:14;5.70;90.30
15099;DHT22;33900;53.640;9.942;2022-11-20T02:59:40;5.70;90.30
15099;DHT22;33900;53.640;9.942;2022-11-20T03:02:05;5.70;90.40
15099;DHT22;33900;53.640;9.942;2022-11-20T03:04:31;5.70;90.40
15099;DHT22;33900;53.640;9.942;2022-11-20T03:06:57;5.70;90.40
15099;DHT22;33900;53.640;9.942;2022-11-20T03:09:22;5.70;90.40
15099;DHT22;33900;53.640;9.942;2022-11-20T03:11:48;5.70;90.40
15099;DHT22;33900;53.640;9.942;2022-11-20T03:14:14;5.60;90.40
15099;DHT22;33900;53.640;9.942;2022-11-20T03:16:39;5.70;90.40
15099;DHT22;33900;53.640;9.942;2022-11-20T03:19:05;5.70;90.40
15099;DHT22;33900;53.640;9.942;2022-11-20T03:21:32;5.60;90.40
15099;DHT22;33900;53.640;9.942;2022-11-20T03:23:58;5.70;90.40
15099;DHT22;33900;53.640;9.942;2022-11-20T03:26:24;5.70;90.40
15099;DHT22;33900;53.640;9.942;2022-11-20T03:28:51;5.70;90.50
15099;DHT22;33900;53.640;9.942;2022-11-20T03:31:18;5.70;90.50
15099;DHT22;33900;53.640;9.942;2022-11-20T03:33:44;5.70;90.50
15099;DHT22;33900;53.640;9.942;2022-11-20T03:36:13;5.70;90.50
15099;DHT22;33900;53.640;9.942;2022-11-20T03:38:39;5.70;90.50
15099;DHT22;33900;53.640;9.942;2022-11-20T03:41:07;5.70;90.50
15099;DHT22;33900;53.640;9.942;2022-11-20T03:43:33;5.70;90.50
15099;DHT22;33900;53.640;9.942;2022-11-20T03:46:02;5.70;90.50
15099;DHT22;33900;53.640;9.942;2022-11-20T03:48:27;5.70;90.50
15099;DHT22;33900;53.640;9.942;2022-11-20T03:51:09;5.70;90.50
15099;DHT22;33900;53.640;9.942;2022-11-20T03:53:42;5.70;90.50
15099;DHT22;33900;53.640;9.942;2022-11-20T03:56:08;5.70;90.50
15099;DHT22;33900;53.640;9.942;2022-11-20T03:58:35;5.70;90.50
15099;DHT22;33900;53.640;9.942;2022-11-20T04:01:12;5.70;90.50
15099;DHT22;33900;53.640;9.942;2022-11-20T04:03:39;5.70;90.50
15099;DHT22;33900;53.640;9.942;2022-11-20T04:06:05;5.70;90.50
15099;DHT22;33900;53.640;9.942;2022-11-20T04:08:34;5.70;90.50
15099;DHT22;33900;53.640;9.942;2022-11-20T04:11:13;5.70;90.50
15099;DHT22;33900;53.640;9.942;2022-11-20T04:13:39;5.70;90.50
15099;DHT22;33900;53.640;9.942;2022-11-20T04:16:05;5.70;90.50
15099;DHT22;33900;53.640;9.942;2022-11-20T04:18:31;5.70;90.50
15099;DHT22;33900;53.640;9.942;2022-11-20T04:20:57;5.70;90.50
15099;DHT22;33900;53.640;9.942;2022-11-20T04:23:23;5.70;90.50
15099;DHT22;33900;53.640;9.942;2022-11-20T04:25:48;5.70;90.50
15099;DHT22;33900;53.640;9.942;2022-11-20T04:28:14;5.70;90.50
15099;DHT22;33900;53.640;9.942;2022-11-20T04:30:42;5.70;90.50
15099;DHT22;33900;53.640;9.942;2022-11-20T04:33:08;5.70;90.50
15099;DHT22;33900;53.640;9.942;2022-11-20T04:35:34;5.70;90.50
15099;DHT22;33900;53.640;9.942;2022-11-20T04:38:00;5.70;90.50
15099;DHT22;33900;53.640;9.942;2022-11-20T04:40:26;5.70;90.50
15099;DHT22;33900;53.640;9.942;2022-11-20T04:42:52;5.70;90.50
15099;DHT22;33900;53.640;9.942;2022-11-20T04:45:18;5.70;90.60
15099;DHT22;33900;53.640;9.942;2022-11-20T04:47:43;5.70;90.60
15099;DHT22;33900;53.640;9.942;2022-11-20T04:50:09;5.70;90.60
15099;DHT22;33900;53.640;9.942;2022-11-20T04:52:37;5.70;90.60
15099;DHT22;33900;53.640;9.942;2022-11-20T04:55:03;5.70;90.60
15099;DHT22;33900;53.640;9.942;2022-11-20T04:57:29;5.70;90.60
15099;DHT22;33900;53.640;9.942;2022-11-20T04:59:55;5.70;90.60
15099;DHT22;33900;53.640;9.942;2022-11-20T05:02:21;5.70;90.60
15099;DHT22;33900;53.640;9.942;2022-11-20T05:04:46;5.70;90.60
15099;DHT22;33900;53.640;9.942;2022-11-20T05:07:12;5.70;90.60
15099;DHT22;33900;53.640;9.942;2022-11-20T05:09:41;5.70;90.60
15099;DHT22;33900;53.640;9.942;2022-11-20T05:12:07;5.70;90.60
15099;DHT22;33900;53.640;9.942;2022-11-20T05:14:33;5.70;90.60
15099;DHT22;33900;53.640;9.942;2022-11-20T05:16:58;5.70;90.60
15099;DHT22;33900;53.640;9.942;2022-11-20T05:19:24;5.70;90.60
15099;DHT22;33900;53.640;9.942;2022-11-20T05:21:50;5.70;90.60
15099;DHT22;33900;53.640;9.942;2022-11-20T05:24:18;5.70;90.60
15099;DHT22;33900;53.640;9.942;2022-11-20T05:26:44;5.70;90.60
15099;DHT22;33900;53.640;9.942;2022-11-20T05:29:12;5.60;90.60
15099;DHT22;33900;53.640;9.942;2022-11-20T05:31:39;5.60;90.60
15099;DHT22;33900;53.640;9.942;2022-11-20T05:34:05;5.60;90.60
15099;DHT22;33900;53.640;9.942;2022-11-20T05:36:31;5.60;90.60
15099;DHT22;33900;53.640;9.942;2022-11-20T05:38:56;5.60;90.60
15099;DHT22;33900;53.640;9.942;2022-11-20T05:41:23;5.60;90.60
15099;DHT22;33900;53.640;9.942;2022-11-20T05:43:49;5.60;90.60
15099;DHT22;33900;53.640;9.942;2022-11-20T05:46:15;5.60;90.70
15099;DHT22;33900;53.640;9.942;2022-11-20T05:48:42;5.60;90.70
15099;DHT22;33900;53.640;9.942;2022-11-20T05:51:08;5.60;90.70
15099;DHT22;33900;53.640;9.942;2022-11-20T05:53:35;5.60;90.70
15099;DHT22;33900;53.640;9.942;2022-11-20T05:56:02;5.60;90.70
15099;DHT22;33900;53.640;9.942;2022-11-20T05:58:28;5.60;90.70
15099;DHT22;33900;53.640;9.942;2022-11-20T06:00:54;5.60;90.70
15099;DHT22;33900;53.640;9.942;2022-11-20T06:03:20;5.60;90.70
15099;DHT22;33900;53.640;9.942;2022-11-20T06:05:49;5.60;90.70
15099;DHT22;33900;53.640;9.942;2022-11-20T06:08:14;5.60;90.70
15099;DHT22;33900;53.640;9.942;2022-11-20T06:10:40;5.50;90.70
15099;DHT22;33900;53.640;9.942;2022-11-20T06:13:08;5.60;90.80
15099;DHT22;33900;53.640;9.942;2022-11-20T06:15:34;5.60;90.80
15099;DHT22;33900;53.640;9.942;2022-11-20T06:18:00;5.60;90.80
15099;DHT22;33900;53.640;9.942;2022-11-20T06:20:25;5.50;90.70
15099;DHT22;33900;53.640;9.942;2022-11-20T06:22:51;5.50;90.70
15099;DHT22;33900;53.640;9.942;2022-11-20T06:25:16;5.50;90.80
15099;DHT22;33900;53.640;9.942;2022-11-20T06:27:42;5.50;90.70
15099;DHT22;33900;53.640;9.942;2022-11-20T06:30:08;5.50;90.80
15099;DHT22;33900;53.640;9.942;2022-11-20T06:32:33;5.50;90.80
15099;DHT22;33900;53.640;9.942;2022-11-20T06:34:59;5.50;90.80
15099;DHT22;33900;53.640;9.942;2022-11-20T06:37:25;5.50;91.20
15099;DHT22;33900;53.640;9.942;2022-11-20T06:39:50;5.50;90.80
15099;DHT22;33900;53.640;9.942;2022-11-20T06:42:16;5.50;90.80
15099;DHT22;33900;53.640;9.942;2022-11-20T06:44:42;5.50;90.80
15099;DHT22;33900;53.640;9.942;2022-11-20T06:47:08;5.50;90.80
15099;DHT22;33900;53.640;9.942;2022-11-20T06:49:33;5.40;90.80
15099;DHT22;33900;53.640;9.942;2022-11-20T06:51:59;5.40;90.70
15099;DHT22;33900;53.640;9.942;2022-11-20T06:54:25;5.40;90.70
15099;DHT22;33900;53.640;9.942;2022-11-20T06:56:50;5.40;90.70
15099;DHT22;33900;53.640;9.942;2022-11-20T06:59:16;5.30;90.70
15099;DHT22;33900;53.640;9.942;2022-11-20T07:01:41;5.30;90.70
15099;DHT22;33900;53.640;9.942;2022-11-20T07:04:07;5.30;90.80
15099;DHT22;33900;53.640;9.942;2022-11-20T07:06:33;5.30;90.80
15099;DHT22;33900;53.640;9.942;2022-11-20T07:09:02;5.30;90.80
15099;DHT22;33900;53.640;9.942;2022-11-20T07:11:27;5.30;90.80
15099;DHT22;33900;53.640;9.942;2022-11-20T07:13:53;5.30;90.80
15099;DHT22;33900;53.640;9.942;2022-11-20T07:16:19;5.30;90.80
15099;DHT22;33900;53.640;9.942;2022-11-20T07:18:44;5.30;90.90
15099;DHT22;33900;53.640;9.942;2022-11-20T07:21:10;5.30;90.90
15099;DHT22;33900;53.640;9.942;2022-11-20T07:23:36;5.30;90.90
15099;DHT22;33900;53.640;9.942;2022-11-20T07:26:08;5.30;90.90
15099;DHT22;33900;53.640;9.942;2022-11-20T07:28:34;5.30;91.20
15099;DHT22;33900;53.640;9.942;2022-11-20T07:31:00;5.30;91.30
15099;DHT22;33900;53.640;9.942;2022-11-20T07:33:26;5.40;90.90
15099;DHT22;33900;53.640;9.942;2022-11-20T07:35:52;5.30;90.90
15099;DHT22;33900;53.640;9.942;2022-11-20T07:38:17;5.40;91.00
15099;DHT22;33900;53.640;9.942;2022-11-20T07:40:43;5.40;91.00
15099;DHT22;33900;53.640;9.942;2022-11-20T07:43:08;5.40;91.00
15099;DHT22;33900;53.640;9.942;2022-11-20T07:45:34;5.40;91.00
15099;DHT22;33900;53.640;9.942;2022-11-20T07:47:59;5.40;91.00
15099;DHT22;33900;53.640;9.942;2022-11-20T07:50:25;5.50;91.00
15099;DHT22;33900;53.640;9.942;2022-11-20T07:52:51;5.40;91.00
15099;DHT22;33900;53.640;9.942;2022-11-20T07:55:17;5.40;91.00
15099;DHT22;33900;53.640;9.942;2022-11-20T07:57:43;5.50;91.00
15099;DHT22;33900;53.640;9.942;2022-11-20T08:00:09;5.50;91.00
15099;DHT22;33900;53.640;9.942;2022-11-20T08:02:42;5.50;91.10
15099;DHT22;33900;53.640;9.942;2022-11-20T08:05:08;5.50;91.00
15099;DHT22;33900;53.640;9.942;2022-11-20T08:07:40;5.50;91.10
15099;DHT22;33900;53.640;9.942;2022-11-20T08:10:07;5.50;91.40
15099;DHT22;33900;53.640;9.942;2022-11-20T08:12:33;5.50;91.00
15099;DHT22;33900;53.640;9.942;2022-11-20T08:15:17;5.50;91.00
15099;DHT22;33900;53.640;9.942;2022-11-20T08:17:43;5.50;91.00
15099;DHT22;33900;53.640;9.942;2022-11-20T08:20:09;5.50;91.10
15099;DHT22;33900;53.640;9.942;2022-11-20T08:22:34;5.50;91.10
15099;DHT22;33900;53.640;9.942;2022-11-20T08:25:00;5.60;91.10
15099;DHT22;33900;53.640;9.942;2022-11-20T08:27:26;5.50;91.00
15099;DHT22;33900;53.640;9.942;2022-11-20T08:29:52;5.50;91.10
15099;DHT22;33900;53.640;9.942;2022-11-20T08:32:18;5.50;91.10
15099;DHT22;33900;53.640;9.942;2022-11-20T08:34:43;5.60;91.10
15099;DHT22;33900;53.640;9.942;2022-11-20T08:37:09;5.60;91.10
15099;DHT22;33900;53.640;9.942;2022-11-20T08:39:34;5.60;91.10
15099;DHT22;33900;53.640;9.942;2022-11-20T08:42:00;5.60;91.10
15099;DHT22;33900;53.640;9.942;2022-11-20T08:44:26;5.60;91.10
15099;DHT22;33900;53.640;9.942;2022-11-20T08:46:52;5.60;91.10
15099;DHT22;33900;53.640;9.942;2022-11-20T08:49:17;5.60;91.10
15099;DHT22;33900;53.640;9.942;2022-11-20T08:51:43;5.70;91.10
15099;DHT22;33900;53.640;9.942;2022-11-20T08:54:09;5.70;91.40
15099;DHT22;33900;53.640;9.942;2022-11-20T08:56:35;5.70;91.10
15099;DHT22;33900;53.640;9.942;2022-11-20T08:59:00;5.70;91.10
15099;DHT22;33900;53.640;9.942;2022-11-20T09:01:29;5.70;91.10
15099;DHT22;33900;53.640;9.942;2022-11-20T09:03:55;5.70;91.10
15099;DHT22;33900;53.640;9.942;2022-11-20T09:06:22;5.70;91.10
15099;DHT22;33900;53.640;9.942;2022-11-20T09:08:51;5.70;91.10
15099;DHT22;33900;53.640;9.942;2022-11-20T09:11:20;5.70;91.10
15099;DHT22;33900;53.640;9.942;2022-11-20T09:13:45;5.70;91.10
15099;DHT22;33900;53.640;9.942;2022-11-20T09:16:11;5.70;91.10
15099;DHT22;33900;53.640;9.942;2022-11-20T09:18:37;5.60;91.10
15099;DHT22;33900;53.640;9.942;2022-11-20T09:21:04;5.60;91.10
15099;DHT22;33900;53.640;9.942;2022-11-20T09:23:34;5.70;91.10
15099;DHT22;33900;53.640;9.942;2022-11-20T09:26:08;5.70;91.20
15099;DHT22;33900;53.640;9.942;2022-11-20T09:28:34;5.70;91.20
15099;DHT22;33900;53.640;9.942;2022-11-20T09:31:00;5.70;91.20
15099;DHT22;33900;53.640;9.942;2022-11-20T09:33:27;5.70;91.20
15099;DHT22;33900;53.640;9.942;2022-11-20T09:35:53;5.70;91.20
15099;DHT22;33900;53.640;9.942;2022-11-20T09:38:18;5.70;91.20
15099;DHT22;33900;53.640;9.942;2022-11-20T09:40:45;5.80;91.30
15099;DHT22;33900;53.640;9.942;2022-11-20T09:43:15;5.80;91.30
15099;DHT22;33900;53.640;9.942;2022-11-20T09:51:37;5.90;91.40
15099;DHT22;33900;53.640;9.942;2022-11-20T09:56:30;6.00;91.40
15099;DHT22;33900;53.640;9.942;2022-11-20T09:58:57;6.00;91.40
15099;DHT22;33900;53.640;9.942;2022-11-20T10:01:30;6.00;91.40
15099;DHT22;33900;53.640;9.942;2022-11-20T10:04:09;6.00;91.40
15099;DHT22;33900;53.640;9.942;2022-11-20T10:09:26;6.10;91.40
15099;DHT22;33900;53.640;9.942;2022-11-20T10:12:04;6.10;91.40
15099;DHT22;33900;53.640;9.942;2022-11-20T10:17:19;6.20;91.40
15099;DHT22;33900;53.640;9.942;2022-11-20T10:19:56;6.20;91.40
15099;DHT22;33900;53.640;9.942;2022-11-20T10:25:22;6.30;91.40
15099;DHT22;33900;53.640;9.942;2022-11-20T10:28:03;6.30;91.40
15099;DHT22;33900;53.640;9.942;2022-11-20T10:30:33;6.30;91.30
15099;DHT22;33900;53.640;9.942;2022-11-20T10:33:05;6.30;91.30
15099;DHT22;33900;53.640;9.942;2022-11-20T10:35:44;6.30;91.30
15099;DHT22;33900;53.640;9.942;2022-11-20T10:40:47;6.40;91.40
15099;DHT22;33900;53.640;9.942;2022-11-20T10:43:19;6.40;91.40
15099;DHT22;33900;53.640;9.942;2022-11-20T10:48:22;6.50;91.40
15099;DHT22;33900;53.640;9.942;2022-11-20T10:53:29;6.60;91.30
15099;DHT22;33900;53.640;9.942;2022-11-20T10:57:00;6.60;91.30
15099;DHT22;33900;53.640;9.942;2022-11-20T11:01:38;6.60;91.20
15099;DHT22;33900;53.640;9.942;2022-11-20T11:04:18;6.60;91.20
15099;DHT22;33900;53.640;9.942;2022-11-20T11:06:49;6.60;91.20
15099;DHT22;33900;53.640;9.942;2022-11-20T11:09:21;6.60;91.20
15099;DHT22;33900;53.640;9.942;2022-11-20T11:11:49;6.60;91.20
15099;DHT22;33900;53.640;9.942;2022-11-20T11:14:18;6.70;91.20
15099;DHT22;33900;53.640;9.942;2022-11-20T11:16:51;6.70;91.20
15099;DHT22;33900;53.640;9.942;2022-11-20T11:19:17;6.70;91.10
15099;DHT22;33900;53.640;9.942;2022-11-20T11:21:50;6.70;91.10
15099;DHT22;33900;53.640;9.942;2022-11-20T11:24:23;6.70;91.10
15099;DHT22;33900;53.640;9.942;2022-11-20T11:27:03;6.70;91.10
15099;DHT22;33900;53.640;9.942;2022-11-20T11:29:30;6.70;91.00
15099;DHT22;33900;53.640;9.942;2022-11-20T11:32:03;6.70;91.00
15099;DHT22;33900;53.640;9.942;2022-11-20T11:34:29;6.70;91.00
15099;DHT22;33900;53.640;9.942;2022-11-20T11:36:57;6.70;91.00
15099;DHT22;33900;53.640;9.942;2022-11-20T11:39:23;6.70;91.00
15099;DHT22;33900;53.640;9.942;2022-11-20T11:41:50;6.70;91.00
15099;DHT22;33900;53.640;9.942;2022-11-20T11:44:20;6.70;90.90
15099;DHT22;33900;53.640;9.942;2022-11-20T11:47:09;6.70;90.90
15099;DHT22;33900;53.640;9.942;2022-11-20T11:49:36;6.70;90.80
15099;DHT22;33900;53.640;9.942;2022-11-20T11:52:11;6.70;90.80
15099;DHT22;33900;53.640;9.942;2022-11-20T11:57:23;6.70;90.80
15099;DHT22;33900;53.640;9.942;2022-11-20T11:59:55;6.70;90.80
15099;DHT22;33900;53.640;9.942;2022-11-20T12:02:34;6.70;90.80
15099;DHT22;33900;53.640;9.942;2022-11-20T12:05:03;6.80;90.80
15099;DHT22;33900;53.640;9.942;2022-11-20T12:07:35;6.80;90.80
15099;DHT22;33900;53.640;9.942;2022-11-20T12:10:04;6.80;90.80
15099;DHT22;33900;53.640;9.942;2022-11-20T12:12:35;6.80;90.80
15099;DHT22;33900;53.640;9.942;2022-11-20T12:15:02;6.80;90.80
15099;DHT22;33900;53.640;9.942;2022-11-20T12:17:27;6.80;90.80
15099;DHT22;33900;53.640;9.942;2022-11-20T12:19:55;6.80;90.70
15099;DHT22;33900;53.640;9.942;2022-11-20T12:30:10;6.90;90.60
15099;DHT22;33900;53.640;9.942;2022-11-20T12:37:56;6.90;90.60
15099;DHT22;33900;53.640;9.942;2022-11-20T12:40:40;6.90;90.60
15099;DHT22;33900;53.640;9.942;2022-11-20T12:43:41;6.90;90.60
15099;DHT22;33900;53.640;9.942;2022-11-20T12:51:17;7.00;90.50
15099;DHT22;33900;53.640;9.942;2022-11-20T12:53:49;7.00;90.50
15099;DHT22;33900;53.640;9.942;2022-11-20T12:59:21;7.00;90.40
15099;DHT22;33900;53.640;9.942;2022-11-20T13:06:56;7.00;90.40
15099;DHT22;33900;53.640;9.942;2022-11-20T13:09:23;7.00;90.30
15099;DHT22;33900;53.640;9.942;2022-11-20T13:17:13;7.00;90.30
15099;DHT22;33900;53.640;9.942;2022-11-20T13:19:40;7.00;90.30
15099;DHT22;33900;53.640;9.942;2022-11-20T13:22:07;7.00;90.20
15099;DHT22;33900;53.640;9.942;2022-11-20T13:24:33;7.10;90.20
15099;DHT22;33900;53.640;9.942;2022-11-20T13:27:03;7.10;90.20
15099;DHT22;33900;53.640;9.942;2022-11-20T13:29:29;7.10;90.20
15099;DHT22;33900;53.640;9.942;2022-11-20T13:32:03;7.10;90.20
15099;DHT22;33900;53.640;9.942;2022-11-20T13:34:31;7.10;90.10
15099;DHT22;33900;53.640;9.942;2022-11-20T13:36:58;7.10;90.10
15099;DHT22;33900;53.640;9.942;2022-11-20T13:39:31;7.10;90.10
15099;DHT22;33900;53.640;9.942;2022-11-20T13:42:02;7.10;90.20
15099;DHT22;33900;53.640;9.942;2022-11-20T13:44:37;7.10;90.10
15099;DHT22;33900;53.640;9.942;2022-11-20T13:47:03;7.10;90.10
15099;DHT22;33900;53.640;9.942;2022-11-20T13:49:33;7.10;90.10
15099;DHT22;33900;53.640;9.942;2022-11-20T13:54:39;7.10;90.10
15099;DHT22;33900;53.640;9.942;2022-11-20T13:57:25;7.10;90.10
15099;DHT22;33900;53.640;9.942;2022-11-20T13:59:58;7.10;90.10
15099;DHT22;33900;53.640;9.942;2022-11-20T14:02:27;7.10;90.10
15099;DHT22;33900;53.640;9.942;2022-11-20T14:04:58;7.10;90.10
15099;DHT22;33900;53.640;9.942;2022-11-20T14:07:26;7.10;90.00
15099;DHT22;33900;53.640;9.942;2022-11-20T14:09:53;7.00;90.00
15099;DHT22;33900;53.640;9.942;2022-11-20T14:12:23;7.00;90.00
15099;DHT22;33900;53.640;9.942;2022-11-20T14:14:52;7.00;90.00
15099;DHT22;33900;53.640;9.942;2022-11-20T14:17:20;7.00;90.00
15099;DHT22;33900;53.640;9.942;2022-11-20T14:19:47;7.00;90.00
15099;DHT22;33900;53.640;9.942;2022-11-20T14:22:24;7.00;89.90
15099;DHT22;33900;53.640;9.942;2022-11-20T14:27:32;6.90;89.90
15099;DHT22;33900;53.640;9.942;2022-11-20T14:30:00;6.90;89.80
15099;DHT22;33900;53.640;9.942;2022-11-20T14:32:26;6.90;89.80
15099;DHT22;33900;53.640;9.942;2022-11-20T14:34:53;6.90;89.90
15099;DHT22;33900;53.640;9.942;2022-11-20T14:37:20;7.00;90.00
15099;DHT22;33900;53.640;9.942;2022-11-20T14:39:51;6.90;89.90
15099;DHT22;33900;53.640;9.942;2022-11-20T14:42:18;6.90;89.90
15099;DHT22;33900;53.640;9.942;2022-11-20T14:44:44;6.90;89.90
15099;DHT22;33900;53.640;9.942;2022-11-20T14:47:12;6.90;89.90
15099;DHT22;33900;53.640;9.942;2022-11-20T14:49:38;6.90;89.90
15099;DHT22;33900;53.640;9.942;2022-11-20T14:52:12;6.90;89.90
15099;DHT22;33900;53.640;9.942;2022-11-20T14:54:45;6.90;89.90
15099;DHT22;33900;53.640;9.942;2022-11-20T14:59:49;6.90;89.80
15099;DHT22;33900;53.640;9.942;2022-11-20T15:02:15;6.80;89.70
15099;DHT22;33900;53.640;9.942;2022-11-20T15:04:56;6.80;89.70
15099;DHT22;33900;53.640;9.942;2022-11-20T15:07:26;6.80;89.70
15099;DHT22;33900;53.640;9.942;2022-11-20T15:10:10;6.80;89.80
15099;DHT22;33900;53.640;9.942;2022-11-20T15:12:50;6.80;89.80
15099;DHT22;33900;53.640;9.942;2022-11-20T15:15:17;6.70;89.70
15099;DHT22;33900;53.640;9.942;2022-11-20T15:17:44;6.70;89.80
15099;DHT22;33900;53.640;9.942;2022-11-20T15:20:13;6.70;89.80
15099;DHT22;33900;53.640;9.942;2022-11-20T15:22:39;6.70;89.80
15099;DHT22;33900;53.640;9.942;2022-11-20T15:25:12;6.70;89.80
15099;DHT22;33900;53.640;9.942;2022-11-20T15:27:38;6.70;89.90
15099;DHT22;33900;53.640;9.942;2022-11-20T15:30:08;6.70;89.90
15099;DHT22;33900;53.640;9.942;2022-11-20T15:32:37;6.70;89.90
15099;DHT22;33900;53.640;9.942;2022-11-20T15:35:03;6.70;90.00
15099;DHT22;33900;53.640;9.942;2022-11-20T15:37:29;6.70;90.00
15099;DHT22;33900;53.640;9.942;2022-11-20T15:39:54;6.70;90.00
15099;DHT22;33900;53.640;9.942;2022-11-20T15:42:20;6.70;90.00
15099;DHT22;33900;53.640;9.942;2022-11-20T15:44:46;6.70;90.00
15099;DHT22;33900;53.640;9.942;2022-11-20T15:47:11;6.70;90.00
15099;DHT22;33900;53.640;9.942;2022-11-20T15:49:37;6.70;90.00
15099;DHT22;33900;53.640;9.942;2022-11-20T15:52:03;6.70;90.00
15099;DHT22;33900;53.640;9.942;2022-11-20T15:54:31;6.60;90.00
15099;DHT22;33900;53.640;9.942;2022-11-20T15:56:57;6.70;90.00
15099;DHT22;33900;53.640;9.942;2022-11-20T15:59:23;6.70;90.00
15099;DHT22;33900;53.640;9.942;2022-11-20T16:01:49;6.70;90.00
15099;DHT22;33900;53.640;9.942;2022-11-20T16:04:15;6.60;90.00
15099;DHT22;33900;53.640;9.942;2022-11-20T16:06:41;6.60;90.00
15099;DHT22;33900;53.640;9.942;2022-11-20T16:09:07;6.60;90.00
15099;DHT22;33900;53.640;9.942;2022-11-20T16:11:33;6.60;90.00
15099;DHT22;33900;53.640;9.942;2022-11-20T16:14:00;6.60;90.00
15099;DHT22;33900;53.640;9.942;2022-11-20T16:16:44;6.60;90.00
15099;DHT22;33900;53.640;9.942;2022-11-20T16:19:11;6.60;90.00
15099;DHT22;33900;53.640;9.942;2022-11-20T16:21:37;6.60;90.00
15099;DHT22;33900;53.640;9.942;2022-11-20T16:24:06;6.60;90.00
15099;DHT22;33900;53.640;9.942;2022-11-20T16:26:32;6.60;90.00
15099;DHT22;33900;53.640;9.942;2022-11-20T16:28:58;6.60;90.00
15099;DHT22;33900;53.640;9.942;2022-11-20T16:31:24;6.60;90.00
15099;DHT22;33900;53.640;9.942;2022-11-20T16:33:51;6.60;90.00
15099;DHT22;33900;53.640;9.942;2022-11-20T16:36:17;6.60;90.00
15099;DHT22;33900;53.640;9.942;2022-11-20T16:38:43;6.60;90.00
15099;DHT22;33900;53.640;9.942;2022-11-20T16:41:09;6.60;90.00
15099;DHT22;33900;53.640;9.942;2022-11-20T16:43:51;6.60;90.00
15099;DHT22;33900;53.640;9.942;2022-11-20T16:46:20;6.60;90.00
15099;DHT22;33900;53.640;9.942;2022-11-20T16:49:05;6.60;90.00
15099;DHT22;33900;53.640;9.942;2022-11-20T16:51:33;6.60;90.00
15099;DHT22;33900;53.640;9.942;2022-11-20T16:54:00;6.50;90.00
15099;DHT22;33900;53.640;9.942;2022-11-20T16:56:26;6.50;90.00
15099;DHT22;33900;53.640;9.942;2022-11-20T16:58:53;6.50;90.00
15099;DHT22;33900;53.640;9.942;2022-11-20T17:01:19;6.50;90.00
15099;DHT22;33900;53.640;9.942;2022-11-20T17:03:53;6.50;90.00
15099;DHT22;33900;53.640;9.942;2022-11-20T17:06:19;6.50;90.00
15099;DHT22;33900;53.640;9.942;2022-11-20T17:08:48;6.50;90.00
15099;DHT22;33900;53.640;9.942;2022-11-20T17:11:18;6.50;90.00
15099;DHT22;33900;53.640;9.942;2022-11-20T17:13:44;6.50;90.00